createdAt,value
2023-03-02T00:02:18.615Z,98249.52
2023-03-02T00:04:54.735Z,98253.76
2023-03-02T00:07:32.095Z,98246.97
2023-03-02T00:10:06.518Z,98235.54
2023-03-02T00:12:40.144Z,98238.38
2023-03-02T00:15:14.153Z,98241.79
2023-03-02T00:17:47.387Z,98254.91
2023-03-02T00:20:20.910Z,98250.25
2023-03-02T00:22:54.353Z,98246.30
2023-03-02T00:25:28.869Z,98255.05
2023-03-02T00:28:02.275Z,98255.16
2023-03-02T00:30:35.492Z,98254.92
2023-03-02T00:33:09.244Z,98260.31
2023-03-02T00:35:43.221Z,98260.53
2023-03-02T00:38:17.132Z,98271.80
2023-03-02T00:40:51.074Z,98281.45
2023-03-02T00:43:26.450Z,98275.89
2023-03-02T00:45:59.956Z,98280.60
2023-03-02T00:48:33.243Z,98287.93
2023-03-02T00:51:08.113Z,98282.62
2023-03-02T00:53:42.407Z,98271.64
2023-03-02T00:56:16.124Z,98272.57
2023-03-02T00:58:51.088Z,98279.56
2023-03-02T01:01:26.581Z,98277.52
2023-03-02T01:03:59.991Z,98271.04
2023-03-02T01:06:33.915Z,98287.20
2023-03-02T01:09:08.634Z,98300.83
2023-03-02T01:11:42.251Z,98290.64
2023-03-02T01:14:16.200Z,98295.56
2023-03-02T01:16:49.723Z,98297.00
2023-03-02T01:19:23.366Z,98283.94
2023-03-02T01:21:56.634Z,98283.66
2023-03-02T01:24:30.206Z,98298.84
2023-03-02T01:27:03.600Z,98296.47
2023-03-02T01:29:37.006Z,98287.38
2023-03-02T01:32:10.270Z,98275.51
2023-03-02T01:34:44.235Z,98284.91
2023-03-02T01:37:17.844Z,98300.34
2023-03-02T01:39:51.477Z,98299.87
2023-03-02T01:42:24.842Z,98300.01
2023-03-02T01:44:58.342Z,98309.73
2023-03-02T01:47:34.984Z,98312.73
2023-03-02T01:50:14.903Z,98309.53
2023-03-02T01:52:50.559Z,98299.33
2023-03-02T01:55:26.772Z,98316.45
2023-03-02T01:58:02.111Z,98311.42
2023-03-02T02:00:38.446Z,98313.19
2023-03-02T02:03:15.337Z,98325.93
2023-03-02T02:05:52.051Z,98320.90
2023-03-02T02:08:26.666Z,98309.19
2023-03-02T02:11:00.973Z,98306.63
2023-03-02T02:13:35.503Z,98315.08
2023-03-02T02:16:10.250Z,98312.59
2023-03-02T02:18:44.982Z,98294.67
2023-03-02T02:21:20.125Z,98284.48
2023-03-02T02:23:58.124Z,98303.88
2023-03-02T02:26:35.756Z,98306.50
2023-03-02T02:29:10.705Z,98309.84
2023-03-02T02:31:47.043Z,98339.13
2023-03-02T02:34:23.186Z,98328.93
2023-03-02T02:36:59.839Z,98332.45
2023-03-02T02:39:36.025Z,98329.72
2023-03-02T02:42:13.631Z,98326.31
2023-03-02T02:44:47.323Z,98333.89
2023-03-02T02:47:23.123Z,98337.38
2023-03-02T02:49:57.697Z,98341.03
2023-03-02T02:52:32.143Z,98341.20
2023-03-02T02:55:06.851Z,98344.61
2023-03-02T02:57:40.680Z,98337.99
2023-03-02T03:00:20.950Z,98354.33
2023-03-02T03:02:59.787Z,98368.60
2023-03-02T03:05:33.773Z,98371.39
2023-03-02T03:08:12.627Z,98369.70
2023-03-02T03:10:48.652Z,98363.64
2023-03-02T03:13:22.148Z,98375.59
2023-03-02T03:15:55.741Z,98360.47
2023-03-02T03:18:31.278Z,98364.91
2023-03-02T03:21:05.451Z,98372.50
2023-03-02T03:23:39.225Z,98369.22
2023-03-02T03:26:13.325Z,98360.73
2023-03-02T03:28:47.442Z,98350.53
2023-03-02T03:31:21.377Z,98358.19
2023-03-02T03:33:55.178Z,98355.81
2023-03-02T03:36:29.794Z,98343.98
2023-03-02T03:39:05.718Z,98342.09
2023-03-02T03:41:40.387Z,98346.16
2023-03-02T03:44:14.856Z,98346.02
2023-03-02T03:46:48.458Z,98341.64
2023-03-02T03:49:22.304Z,98341.64
2023-03-02T03:51:56.524Z,98330.72
2023-03-02T03:54:31.020Z,98341.64
2023-03-02T03:57:04.947Z,98338.95
2023-03-02T03:59:38.583Z,98347.54
2023-03-02T04:02:12.388Z,98353.54
2023-03-02T04:04:47.767Z,98358.70
2023-03-02T04:07:22.768Z,98364.67
2023-03-02T04:09:59.146Z,98342.61
2023-03-02T04:12:36.033Z,98350.33
2023-03-02T04:15:15.625Z,98346.88
2023-03-02T04:17:50.283Z,98353.67
2023-03-02T04:20:27.248Z,98356.95
2023-03-02T04:23:01.878Z,98355.44
2023-03-02T04:25:36.271Z,98360.60
2023-03-02T04:28:11.267Z,98356.47
2023-03-02T04:30:46.545Z,98367.47
2023-03-02T04:33:19.904Z,98364.12
2023-03-02T04:35:55.167Z,98369.36
2023-03-02T04:38:29.860Z,98378.98
2023-03-02T04:41:04.474Z,98373.22
2023-03-02T04:43:37.883Z,98393.25
2023-03-02T04:46:14.297Z,98397.49
2023-03-02T04:48:47.600Z,98396.70
2023-03-02T04:51:24.287Z,98411.94
2023-03-02T04:54:00.286Z,98412.80
2023-03-02T04:56:34.191Z,98406.97
2023-03-02T04:59:07.993Z,98418.77
2023-03-02T05:01:42.237Z,98409.45
2023-03-02T05:04:16.591Z,98424.77
2023-03-02T05:06:50.321Z,98426.80
2023-03-02T05:09:25.442Z,98432.87
2023-03-02T05:12:00.156Z,98430.56
2023-03-02T05:14:34.145Z,98433.11
2023-03-02T05:17:07.702Z,98438.36
2023-03-02T05:19:41.284Z,98439.22
2023-03-02T05:22:14.949Z,98424.80
2023-03-02T05:24:49.220Z,98435.01
2023-03-02T05:27:22.470Z,98437.70
2023-03-02T05:29:55.756Z,98438.59
2023-03-02T05:32:29.297Z,98437.94
2023-03-02T05:35:02.748Z,98429.45
2023-03-02T05:37:36.084Z,98427.14
2023-03-02T05:40:12.619Z,98426.66
2023-03-02T05:42:46.741Z,98434.58
2023-03-02T05:45:24.290Z,98412.70
2023-03-02T05:47:58.050Z,98421.32
2023-03-02T05:50:31.181Z,98419.70
2023-03-02T05:53:04.896Z,98414.59
2023-03-02T05:55:38.477Z,98421.63
2023-03-02T05:58:14.693Z,98427.00
2023-03-02T06:00:49.219Z,98424.80
2023-03-02T06:03:22.617Z,98433.36
2023-03-02T06:05:56.382Z,98431.23
2023-03-02T06:08:29.851Z,98425.69
2023-03-02T06:11:03.443Z,98424.79
2023-03-02T06:13:37.501Z,98421.44
2023-03-02T06:16:11.507Z,98425.21
2023-03-02T06:18:44.913Z,98433.33
2023-03-02T06:21:18.489Z,98434.55
2023-03-02T06:23:52.120Z,98436.42
2023-03-02T06:26:25.562Z,98441.53
2023-03-02T06:28:59.120Z,98442.34
2023-03-02T06:31:32.709Z,98433.80
2023-03-02T06:34:06.862Z,98437.09
2023-03-02T06:36:40.308Z,98418.25
2023-03-02T06:39:16.668Z,98434.38
2023-03-02T06:41:50.581Z,98434.92
2023-03-02T06:44:24.355Z,98429.14
2023-03-02T06:46:57.679Z,98415.84
2023-03-02T06:49:31.363Z,98417.38
2023-03-02T06:52:06.838Z,98408.18
2023-03-02T06:54:40.589Z,98417.58
2023-03-02T06:57:13.961Z,98420.69
2023-03-02T06:59:47.440Z,98414.57
2023-03-02T07:02:20.811Z,98418.48
2023-03-02T07:04:54.095Z,98420.01
2023-03-02T07:07:27.413Z,98415.91
2023-03-02T07:10:00.787Z,98413.67
2023-03-02T07:12:34.936Z,98411.23
2023-03-02T07:15:12.224Z,98409.36
2023-03-02T07:17:46.824Z,98407.00
2023-03-02T07:20:20.897Z,98399.69
2023-03-02T07:22:54.429Z,98407.90
2023-03-02T07:25:27.975Z,98402.90
2023-03-02T07:28:01.396Z,98432.73
2023-03-02T07:30:37.368Z,98405.55
2023-03-02T07:33:11.069Z,98412.27
2023-03-02T07:35:44.661Z,98416.13
2023-03-02T07:38:18.387Z,98402.25
2023-03-02T07:40:52.058Z,98409.83
2023-03-02T07:43:26.702Z,98399.45
2023-03-02T07:46:01.770Z,98415.83
2023-03-02T07:48:35.899Z,98416.45
2023-03-02T07:51:09.377Z,98389.91
2023-03-02T07:53:43.774Z,98396.02
2023-03-02T07:56:17.653Z,98409.51
2023-03-02T07:58:51.040Z,98398.48
2023-03-02T08:01:24.543Z,98396.48
2023-03-02T08:03:57.736Z,98412.52
2023-03-02T08:06:31.858Z,98398.38
2023-03-02T08:09:06.450Z,98390.61
2023-03-02T08:11:39.844Z,98364.33
2023-03-02T08:14:13.343Z,98375.35
2023-03-02T08:16:46.937Z,98372.33
2023-03-02T08:19:20.575Z,98371.30
2023-03-02T08:21:54.165Z,98368.52
2023-03-02T08:24:27.928Z,98374.84
2023-03-02T08:27:03.710Z,98373.04
2023-03-02T08:29:37.949Z,98384.95
2023-03-02T08:32:11.497Z,98373.34
2023-03-02T08:34:44.984Z,98375.34
2023-03-02T08:37:18.591Z,98377.47
2023-03-02T08:39:52.693Z,98378.27
2023-03-02T08:42:26.813Z,98396.73
2023-03-02T08:45:00.404Z,98390.61
2023-03-02T08:47:35.038Z,98389.00
2023-03-02T08:50:10.064Z,98377.50
2023-03-02T08:52:43.743Z,98389.76
2023-03-02T08:55:18.730Z,98384.52
2023-03-02T08:57:52.151Z,98386.73
2023-03-02T09:00:26.174Z,98387.59
2023-03-02T09:02:59.576Z,98389.98
2023-03-02T09:05:32.918Z,98389.09
2023-03-02T09:08:07.750Z,98388.39
2023-03-02T09:10:41.268Z,98378.34
2023-03-02T09:13:14.789Z,98395.94
2023-03-02T09:15:48.960Z,98390.56
2023-03-02T09:18:22.406Z,98376.19
2023-03-02T09:20:57.206Z,98385.27
2023-03-02T09:23:31.737Z,98373.13
2023-03-02T09:26:05.745Z,98360.36
2023-03-02T09:28:39.984Z,98369.76
2023-03-02T09:31:14.312Z,98361.26
2023-03-02T09:33:47.781Z,98352.70
2023-03-02T09:36:24.266Z,98315.59
2023-03-02T09:38:57.817Z,98335.22
2023-03-02T09:41:56.660Z,98340.52
2023-03-02T09:44:50.773Z,98338.48
2023-03-02T09:47:35.571Z,98332.11
2023-03-02T09:50:09.852Z,98352.44
2023-03-02T09:52:47.152Z,98348.83
2023-03-02T09:55:23.583Z,98317.78
2023-03-02T09:57:59.940Z,98344.34
2023-03-02T10:00:36.385Z,98334.88
2023-03-02T10:03:17.468Z,98320.73
2023-03-02T10:05:50.217Z,98326.25
2023-03-02T10:08:26.895Z,98325.13
2023-03-02T10:11:03.892Z,98332.53
2023-03-02T10:13:41.968Z,98318.43
2023-03-02T10:16:23.394Z,98316.33
2023-03-02T10:19:05.220Z,98318.94
2023-03-02T10:21:41.634Z,98297.00
2023-03-02T10:24:20.405Z,98300.92
2023-03-02T10:26:56.673Z,98308.39
2023-03-02T10:29:45.205Z,98309.98
2023-03-02T10:32:23.442Z,98290.86
2023-03-02T10:34:58.074Z,98286.98
2023-03-02T10:37:33.357Z,98287.23
2023-03-02T10:40:08.200Z,98284.41
2023-03-02T10:42:42.819Z,98282.34
2023-03-02T10:45:21.619Z,98273.44
2023-03-02T10:48:04.482Z,98248.95
2023-03-02T10:50:38.540Z,98260.69
2023-03-02T10:53:19.681Z,98256.52
2023-03-02T10:55:55.207Z,98254.39
2023-03-02T10:58:32.696Z,98236.17
2023-03-02T11:01:09.050Z,98221.62
2023-03-02T11:03:42.626Z,98222.80
2023-03-02T11:06:20.687Z,98221.09
2023-03-02T11:09:03.523Z,98240.13
2023-03-02T11:11:38.070Z,98218.14
2023-03-02T11:14:16.209Z,98223.24
2023-03-02T11:16:49.692Z,98200.86
2023-03-02T11:19:26.128Z,98195.57
2023-03-02T11:22:02.915Z,98187.56
2023-03-02T11:24:39.197Z,98197.20
2023-03-02T11:27:16.950Z,98192.00
2023-03-02T11:29:50.597Z,98195.80
2023-03-02T11:32:26.868Z,98184.72
2023-03-02T11:35:03.594Z,98205.95
2023-03-02T11:37:41.110Z,98194.52
2023-03-02T11:40:22.765Z,98185.02
2023-03-02T11:42:58.158Z,98195.81
2023-03-02T11:45:34.389Z,98189.38
2023-03-02T11:48:10.650Z,98190.20
2023-03-02T11:50:47.724Z,98177.16
2023-03-02T11:53:23.079Z,98190.47
2023-03-02T11:55:56.999Z,98189.31
2023-03-02T11:58:32.954Z,98190.08
2023-03-02T12:01:09.080Z,98190.28
2023-03-02T12:03:45.794Z,98171.90
2023-03-02T12:06:33.154Z,98175.44
2023-03-02T12:09:13.280Z,98181.47
2023-03-02T12:11:47.912Z,98179.89
2023-03-02T12:14:32.360Z,98184.41
2023-03-02T12:17:25.093Z,98185.51
2023-03-02T12:20:10.904Z,98162.41
2023-03-02T12:22:44.425Z,98176.63
2023-03-02T12:25:32.099Z,98160.66
2023-03-02T12:28:04.604Z,98142.63
2023-03-02T12:30:38.141Z,98141.77
2023-03-02T12:33:22.250Z,98146.52
2023-03-02T12:36:04.688Z,98146.70
2023-03-02T12:38:40.138Z,98125.92
2023-03-02T12:41:27.695Z,98125.80
2023-03-02T12:44:03.991Z,98111.23
2023-03-02T12:46:39.865Z,98120.84
2023-03-02T12:52:31.338Z,98095.56
2023-03-02T12:55:07.928Z,98092.78
2023-03-02T12:57:43.353Z,98084.80
2023-03-02T13:00:21.201Z,98097.28
2023-03-02T13:02:54.374Z,98092.61
2023-03-02T13:05:29.236Z,98058.19
2023-03-02T13:08:05.583Z,98060.31
2023-03-02T13:10:42.018Z,98070.36
2023-03-02T13:13:20.661Z,98057.52
2023-03-02T13:15:56.436Z,98058.97
2023-03-02T13:18:32.540Z,98062.53
2023-03-02T13:21:07.055Z,98025.33
2023-03-02T13:23:47.285Z,98048.47
2023-03-02T13:26:30.323Z,98059.02
2023-03-02T13:29:05.685Z,98021.94
2023-03-02T13:31:39.840Z,98026.67
2023-03-02T13:34:23.017Z,98043.48
2023-03-02T13:36:57.208Z,98018.38
2023-03-02T13:39:32.504Z,98024.20
2023-03-02T13:42:08.883Z,98031.84
2023-03-02T13:44:43.102Z,97997.50
2023-03-02T13:47:24.133Z,98005.80
2023-03-02T13:49:58.626Z,98020.68
2023-03-02T13:52:34.010Z,98012.70
2023-03-02T13:55:12.124Z,98000.52
2023-03-02T13:57:46.708Z,98014.87
2023-03-02T14:00:24.198Z,97981.52
2023-03-02T14:02:57.589Z,97982.13
2023-03-02T14:05:33.763Z,98001.89
2023-03-02T14:08:07.659Z,97987.08
2023-03-02T14:10:41.423Z,97974.23
2023-03-02T14:13:18.394Z,97974.19
2023-03-02T14:15:53.481Z,97965.43
2023-03-02T14:18:40.125Z,97988.26
2023-03-02T14:21:17.985Z,97951.70
2023-03-02T14:23:52.807Z,97991.49
2023-03-02T14:26:38.026Z,97958.47
2023-03-02T14:29:18.409Z,97953.40
2023-03-02T14:31:52.568Z,97923.48
2023-03-02T14:34:27.342Z,97921.74
2023-03-02T14:37:03.788Z,97934.41
2023-03-02T14:39:41.169Z,97912.17
2023-03-02T14:42:16.712Z,97929.12
2023-03-02T14:44:51.706Z,97926.77
2023-03-02T14:47:25.243Z,97919.81
2023-03-02T14:49:58.929Z,97915.59
2023-03-02T14:52:36.811Z,97915.67
2023-03-02T14:55:16.644Z,97918.83
2023-03-02T14:57:53.404Z,97924.62
2023-03-02T15:00:27.874Z,97910.17
2023-03-02T15:03:01.943Z,97910.17
2023-03-02T15:05:35.748Z,97917.04
2023-03-02T15:08:10.842Z,97912.69
2023-03-02T15:10:46.299Z,97920.45
2023-03-02T15:13:19.558Z,97908.55
2023-03-02T15:15:53.624Z,97910.94
2023-03-02T15:18:27.105Z,97894.64
2023-03-02T15:21:01.253Z,97892.63
2023-03-02T15:23:34.858Z,97912.98
2023-03-02T15:26:08.623Z,97885.72
2023-03-02T15:28:42.762Z,97898.30
2023-03-02T15:31:18.419Z,97883.88
2023-03-02T15:33:52.312Z,97887.39
2023-03-02T15:36:26.537Z,97869.08
2023-03-02T15:39:00.213Z,97900.77
2023-03-02T15:41:34.083Z,97891.34
2023-03-02T15:44:08.111Z,97900.05
2023-03-02T15:46:41.851Z,97898.20
2023-03-02T15:49:15.404Z,97898.30
2023-03-02T15:51:49.000Z,97893.27
2023-03-02T15:54:22.683Z,97885.50
2023-03-02T15:56:56.388Z,97898.39
2023-03-02T15:59:31.525Z,97896.77
2023-03-02T16:02:05.170Z,97884.73
2023-03-02T16:04:38.606Z,97873.65
2023-03-02T16:07:12.218Z,97883.97
2023-03-02T16:09:46.522Z,97875.36
2023-03-02T16:12:22.474Z,97861.80
2023-03-02T16:14:56.113Z,97875.53
2023-03-02T16:17:29.424Z,97872.80
2023-03-02T16:20:02.802Z,97866.23
2023-03-02T16:22:36.187Z,97876.39
2023-03-02T16:25:11.570Z,97877.11
2023-03-02T16:27:47.248Z,97867.69
2023-03-02T16:30:23.432Z,97860.22
2023-03-02T16:33:02.028Z,97875.44
2023-03-02T16:35:37.709Z,97861.80
2023-03-02T16:38:12.721Z,97866.02
2023-03-02T16:40:47.834Z,97871.34
2023-03-02T16:43:22.055Z,97862.06
2023-03-02T16:45:56.507Z,97852.80
2023-03-02T16:48:30.155Z,97861.45
2023-03-02T16:51:05.022Z,97856.34
2023-03-02T16:53:38.441Z,97870.03
2023-03-02T16:56:13.485Z,97856.55
2023-03-02T16:58:46.793Z,97847.94
2023-03-02T17:01:22.594Z,97864.27
2023-03-02T17:03:56.062Z,97853.26
2023-03-02T17:06:29.587Z,97854.88
2023-03-02T17:09:03.368Z,97852.45
2023-03-02T17:11:36.923Z,97846.48
2023-03-02T17:14:10.493Z,97837.98
2023-03-02T17:16:44.131Z,97855.91
2023-03-02T17:19:17.725Z,97836.36
2023-03-02T17:21:51.149Z,97845.14
2023-03-02T17:24:24.718Z,97850.38
2023-03-02T17:26:58.614Z,97837.62
2023-03-02T17:29:32.325Z,97853.75
2023-03-02T17:32:05.816Z,97823.19
2023-03-02T17:34:39.112Z,97848.72
2023-03-02T17:37:12.702Z,97844.45
2023-03-02T17:39:46.421Z,97842.86
2023-03-02T17:42:20.125Z,97842.05
2023-03-02T17:44:53.569Z,97848.03
2023-03-02T17:47:26.976Z,97845.63
2023-03-02T17:50:01.514Z,97848.22
2023-03-02T17:52:35.169Z,97844.80
2023-03-02T17:55:10.571Z,97843.14
2023-03-02T17:57:44.623Z,97845.81
2023-03-02T18:00:21.557Z,97840.70
2023-03-02T18:02:55.348Z,97848.50
2023-03-02T18:05:29.513Z,97847.56
2023-03-02T18:08:02.825Z,97842.37
2023-03-02T18:10:36.282Z,97833.98
2023-03-02T18:13:09.776Z,97845.05
2023-03-02T18:15:43.835Z,97846.79
2023-03-02T18:18:17.309Z,97839.96
2023-03-02T18:20:51.207Z,97844.07
2023-03-02T18:23:24.987Z,97835.66
2023-03-02T18:25:58.626Z,97837.32
2023-03-02T18:28:32.132Z,97833.91
2023-03-02T18:31:05.665Z,97840.89
2023-03-02T18:33:39.465Z,97827.97
2023-03-02T18:36:14.523Z,97831.34
2023-03-02T18:38:53.224Z,97831.42
2023-03-02T18:41:32.753Z,97832.32
2023-03-02T18:44:06.830Z,97837.48
2023-03-02T18:46:40.639Z,97828.91
2023-03-02T18:49:14.373Z,97818.50
2023-03-02T18:51:48.666Z,97834.14
2023-03-02T18:54:22.243Z,97835.84
2023-03-02T18:56:55.655Z,97833.37
2023-03-02T18:59:29.351Z,97834.30
2023-03-02T19:02:04.254Z,97832.55
2023-03-02T19:04:37.706Z,97822.30
2023-03-02T19:07:11.643Z,97832.62
2023-03-02T19:09:45.107Z,97832.74
2023-03-02T19:12:20.028Z,97819.93
2023-03-02T19:14:55.417Z,97823.34
2023-03-02T19:17:35.939Z,97819.19
2023-03-02T19:20:19.821Z,97824.39
2023-03-02T19:22:59.975Z,97814.92
2023-03-02T19:25:35.618Z,97814.14
2023-03-02T19:28:19.101Z,97807.31
2023-03-02T19:30:55.490Z,97814.92
2023-03-02T19:33:29.203Z,97810.69
2023-03-02T19:36:02.333Z,97799.55
2023-03-02T19:38:37.856Z,97801.25
2023-03-02T19:41:12.509Z,97801.25
2023-03-02T19:43:46.461Z,97796.13
2023-03-02T19:46:21.084Z,97797.84
2023-03-02T19:48:54.830Z,97808.98
2023-03-02T19:51:28.725Z,97803.89
2023-03-02T19:54:04.446Z,97793.65
2023-03-02T19:56:39.843Z,97790.30
2023-03-02T19:59:13.573Z,97788.63
2023-03-02T20:01:48.906Z,97793.02
2023-03-02T20:04:22.265Z,97781.84
2023-03-02T20:06:55.697Z,97782.77
2023-03-02T20:09:29.288Z,97775.08
2023-03-02T20:12:05.043Z,97769.13
2023-03-02T20:14:40.458Z,97766.61
2023-03-02T20:17:14.135Z,97772.66
2023-03-02T20:19:47.831Z,97766.64
2023-03-02T20:22:21.331Z,97765.89
2023-03-02T20:24:54.821Z,97757.35
2023-03-02T20:27:28.353Z,97768.39
2023-03-02T20:30:01.685Z,97756.46
2023-03-02T20:32:35.223Z,97748.88
2023-03-02T20:35:11.283Z,97754.08
2023-03-02T20:37:44.750Z,97744.75
2023-03-02T20:40:19.531Z,97738.80
2023-03-02T20:42:53.735Z,97749.12
2023-03-02T20:45:27.272Z,97733.81
2023-03-02T20:48:00.872Z,97733.78
2023-03-02T20:50:36.346Z,97737.23
2023-03-02T20:53:10.795Z,97736.38
2023-03-02T20:55:44.962Z,97732.99
2023-03-02T20:58:18.932Z,97727.87
2023-03-02T21:00:53.999Z,97728.75
2023-03-02T21:03:27.133Z,97735.59
2023-03-02T21:06:00.918Z,97727.87
2023-03-02T21:08:36.405Z,97731.25
2023-03-02T21:11:12.703Z,97736.45
2023-03-02T21:13:47.794Z,97732.92
2023-03-02T21:16:24.080Z,97726.91
2023-03-02T21:19:00.539Z,97722.67
2023-03-02T21:21:41.352Z,97728.48
2023-03-02T21:24:10.805Z,97727.55
2023-03-02T21:26:44.995Z,97724.98
2023-03-02T21:29:21.638Z,97722.43
2023-03-02T21:31:55.761Z,97714.73
2023-03-02T21:34:32.103Z,97716.38
2023-03-02T21:37:08.670Z,97715.39
2023-03-02T21:39:43.587Z,97708.38
2023-03-02T21:42:19.646Z,97710.73
2023-03-02T21:44:52.949Z,97704.53
2023-03-02T21:47:26.365Z,97712.97
2023-03-02T21:49:59.918Z,97700.08
2023-03-02T21:52:35.130Z,97708.48
2023-03-02T21:55:10.375Z,97701.50
2023-03-02T21:57:44.400Z,97707.41
2023-03-02T22:00:22.972Z,97701.47
2023-03-02T22:02:57.036Z,97703.17
2023-03-02T22:05:30.578Z,97703.17
2023-03-02T22:08:03.913Z,97704.95
2023-03-02T22:10:41.614Z,97690.66
2023-03-02T22:13:18.532Z,97688.31
2023-03-02T22:15:53.776Z,97684.36
2023-03-02T22:18:27.985Z,97685.31
2023-03-02T22:21:02.790Z,97680.29
2023-03-02T22:23:36.212Z,97677.02
2023-03-02T22:26:14.499Z,97679.71
2023-03-02T22:28:47.885Z,97672.98
2023-03-02T22:31:23.656Z,97664.40
2023-03-02T22:33:57.178Z,97668.67
2023-03-02T22:36:31.953Z,97658.39
2023-03-02T22:39:09.960Z,97660.75
2023-03-02T22:41:43.369Z,97657.98
2023-03-02T22:44:17.008Z,97654.46
2023-03-02T22:46:50.711Z,97667.27
2023-03-02T22:49:24.042Z,97661.47
2023-03-02T22:51:59.231Z,97660.67
2023-03-02T22:54:35.422Z,97661.53
2023-03-02T22:57:26.883Z,97664.13
2023-03-02T23:00:07.619Z,97660.75
2023-03-02T23:02:44.223Z,97664.20
2023-03-02T23:05:28.576Z,97665.09
2023-03-02T23:08:14.067Z,97665.12
2023-03-02T23:10:48.542Z,97657.43
2023-03-02T23:13:26.928Z,97654.02
2023-03-02T23:15:59.510Z,97654.02
2023-03-02T23:18:34.304Z,97653.13
2023-03-02T23:21:14.412Z,97649.70
2023-03-02T23:23:47.910Z,97642.05
2023-03-02T23:26:21.956Z,97631.80
2023-03-02T23:28:55.864Z,97643.80
2023-03-02T23:31:30.364Z,97624.94
2023-03-02T23:34:05.526Z,97624.90
2023-03-02T23:36:39.856Z,97624.94
2023-03-02T23:39:14.589Z,97618.23
2023-03-02T23:41:47.906Z,97615.70
2023-03-02T23:44:22.245Z,97614.09
2023-03-02T23:46:56.235Z,97612.41
2023-03-02T23:49:29.853Z,97609.91
2023-03-02T23:52:03.685Z,97609.88
2023-03-02T23:54:36.247Z,97594.47
2023-03-02T23:57:10.021Z,97596.97
2023-03-02T23:59:46.310Z,97595.26
